createdAt,value
2023-05-24T04:00:39.056Z,10.53
2023-05-24T04:01:40.025Z,10.53
2023-05-24T04:02:40.156Z,10.56
2023-05-24T04:03:40.117Z,10.58
2023-05-24T04:04:39.975Z,10.59
2023-05-24T04:05:39.996Z,10.59
2023-05-24T04:06:39.965Z,10.59
2023-05-24T04:07:39.964Z,10.58
2023-05-24T04:08:39.944Z,10.60
2023-05-24T04:09:39.943Z,10.70
2023-05-24T04:10:39.964Z,10.65
2023-05-24T04:11:39.899Z,10.66
2023-05-24T04:12:39.903Z,10.60
2023-05-24T04:13:39.901Z,10.60
2023-05-24T04:14:39.870Z,10.65
2023-05-24T04:15:39.875Z,10.66
2023-05-24T04:16:39.875Z,10.68
2023-05-24T04:17:39.978Z,10.62
2023-05-24T04:18:39.878Z,10.63
2023-05-24T04:19:39.817Z,10.56
2023-05-24T04:20:39.872Z,10.58
2023-05-24T04:21:39.797Z,10.59
2023-05-24T04:22:39.800Z,10.59
2023-05-24T04:23:39.784Z,10.62
2023-05-24T04:24:39.849Z,10.62
2023-05-24T04:25:39.775Z,10.53
2023-05-24T04:26:39.736Z,10.52
2023-05-24T04:27:39.732Z,10.51
2023-05-24T04:28:39.704Z,10.47
2023-05-24T04:29:39.700Z,10.52
2023-05-24T04:30:39.725Z,10.52
2023-05-24T04:31:39.781Z,10.51
2023-05-24T04:32:39.727Z,10.51
2023-05-24T04:33:39.742Z,10.55
2023-05-24T04:34:39.645Z,10.56
2023-05-24T04:35:39.644Z,10.55
2023-05-24T04:36:39.628Z,10.58
2023-05-24T04:37:39.612Z,10.63
2023-05-24T04:38:39.665Z,10.65
2023-05-24T04:39:39.598Z,10.60
2023-05-24T04:40:39.634Z,10.60
2023-05-24T04:41:39.588Z,10.60
2023-05-24T04:42:39.556Z,10.65
2023-05-24T04:43:39.558Z,10.66
2023-05-24T04:44:39.541Z,10.66
2023-05-24T04:45:39.542Z,10.63
2023-05-24T04:46:39.546Z,10.60
2023-05-24T04:47:39.541Z,10.60
2023-05-24T04:48:39.533Z,10.66
2023-05-24T04:49:39.492Z,10.68
2023-05-24T04:50:39.664Z,10.68
2023-05-24T04:51:39.465Z,10.74
2023-05-24T04:52:39.453Z,10.66
2023-05-24T04:53:39.470Z,10.71
2023-05-24T04:54:39.439Z,10.66
2023-05-24T04:55:39.438Z,10.74
2023-05-24T04:56:39.406Z,10.68
2023-05-24T04:57:39.391Z,10.74
2023-05-24T04:58:39.514Z,10.71
2023-05-24T04:59:39.372Z,10.80
2023-05-24T05:00:39.456Z,10.78
2023-05-24T05:01:39.383Z,10.80
2023-05-24T05:02:39.428Z,10.77
2023-05-24T05:03:39.403Z,10.77
2023-05-24T05:04:39.325Z,10.78
2023-05-24T05:05:39.316Z,10.80
2023-05-24T05:06:39.287Z,10.76
2023-05-24T05:07:39.282Z,10.80
2023-05-24T05:08:39.289Z,10.73
2023-05-24T05:09:39.278Z,10.76
2023-05-24T05:10:39.238Z,10.73
2023-05-24T05:11:39.229Z,10.66
2023-05-24T05:12:39.224Z,10.68
2023-05-24T05:13:39.228Z,10.66
2023-05-24T05:14:39.245Z,10.63
2023-05-24T05:15:40.968Z,10.62
2023-05-24T05:16:39.252Z,10.59
2023-05-24T05:17:39.284Z,10.59
2023-05-24T05:18:39.194Z,10.53
2023-05-24T05:19:39.158Z,10.59
2023-05-24T05:20:39.262Z,10.55
2023-05-24T05:21:39.131Z,10.62
2023-05-24T05:22:39.120Z,10.63
2023-05-24T05:23:39.132Z,10.71
2023-05-24T05:24:39.122Z,10.74
2023-05-24T05:25:39.092Z,10.80
2023-05-24T05:26:39.095Z,10.84
2023-05-24T05:27:39.073Z,10.84
2023-05-24T05:28:39.052Z,10.86
2023-05-24T05:29:39.066Z,10.89
2023-05-24T05:30:39.044Z,10.89
2023-05-24T05:31:39.035Z,10.92
2023-05-24T05:32:39.085Z,10.91
2023-05-24T05:33:39.014Z,10.95
2023-05-24T05:34:39.006Z,11.09
2023-05-24T05:35:38.978Z,11.19
2023-05-24T05:36:38.963Z,11.25
2023-05-24T05:37:38.988Z,11.13
2023-05-24T05:38:39.009Z,11.10
2023-05-24T05:39:38.937Z,11.01
2023-05-24T05:40:38.923Z,10.99
2023-05-24T05:41:38.912Z,10.98
2023-05-24T05:42:38.914Z,10.96
2023-05-24T05:43:38.899Z,11.02
2023-05-24T05:44:38.880Z,10.88
2023-05-24T05:45:38.871Z,10.88
2023-05-24T05:46:39.020Z,10.86
2023-05-24T05:47:38.883Z,10.77
2023-05-24T05:48:38.845Z,10.76
2023-05-24T05:49:38.827Z,10.83
2023-05-24T05:50:38.810Z,10.96
2023-05-24T05:51:38.866Z,11.07
2023-05-24T05:52:38.793Z,11.06
2023-05-24T05:53:38.776Z,11.03
2023-05-24T05:54:38.773Z,11.03
2023-05-24T05:55:38.761Z,10.95
2023-05-24T05:56:38.741Z,10.95
2023-05-24T05:57:38.744Z,10.94
2023-05-24T05:58:38.705Z,10.92
2023-05-24T05:59:38.717Z,10.92
2023-05-24T06:00:38.693Z,10.95
2023-05-24T06:01:38.703Z,10.92
2023-05-24T06:02:38.748Z,10.86
2023-05-24T06:03:39.731Z,10.78
2023-05-24T06:04:38.695Z,10.77
2023-05-24T06:05:38.656Z,10.78
2023-05-24T06:06:38.639Z,10.88
2023-05-24T06:07:38.704Z,10.96
2023-05-24T06:08:38.608Z,10.98
2023-05-24T06:09:38.614Z,11.02
2023-05-24T06:10:38.632Z,11.06
2023-05-24T06:11:38.570Z,11.07
2023-05-24T06:12:38.548Z,11.13
2023-05-24T06:13:38.559Z,11.20
2023-05-24T06:14:38.589Z,11.13
2023-05-24T06:15:38.575Z,11.16
2023-05-24T06:16:38.542Z,11.16
2023-05-24T06:17:38.553Z,11.14
2023-05-24T06:18:38.511Z,11.06
2023-05-24T06:19:38.505Z,11.10
2023-05-24T06:20:38.509Z,11.10
2023-05-24T06:21:38.464Z,11.06
2023-05-24T06:22:38.474Z,11.06
2023-05-24T06:23:38.450Z,11.03
2023-05-24T06:24:38.465Z,11.03
2023-05-24T06:25:38.452Z,11.02
2023-05-24T06:26:38.482Z,10.99
2023-05-24T06:27:38.403Z,11.07
2023-05-24T06:28:38.392Z,10.98
2023-05-24T06:29:38.454Z,11.09
2023-05-24T06:30:38.499Z,11.16
2023-05-24T06:31:38.454Z,11.16
2023-05-24T06:32:38.370Z,11.20
2023-05-24T06:35:20.494Z,11.19
2023-05-24T06:35:49.860Z,11.17
2023-05-24T06:36:49.838Z,11.14
2023-05-24T06:37:49.822Z,11.20
2023-05-24T06:38:49.796Z,11.27
2023-05-24T06:39:49.787Z,11.29
2023-05-24T06:40:49.807Z,11.32
2023-05-24T06:41:49.849Z,11.32
2023-05-24T06:42:49.785Z,11.31
2023-05-24T06:43:49.765Z,11.29
2023-05-24T06:44:49.736Z,11.28
2023-05-24T06:45:49.890Z,11.31
2023-05-24T06:46:49.817Z,11.31
2023-05-24T06:47:49.851Z,11.29
2023-05-24T06:48:49.870Z,11.28
2023-05-24T06:49:49.746Z,11.24
2023-05-24T06:50:49.682Z,11.17
2023-05-24T06:51:49.672Z,11.21
2023-05-24T06:52:49.748Z,11.07
2023-05-24T06:53:49.740Z,10.99
2023-05-24T06:54:49.630Z,11.01
2023-05-24T06:55:49.749Z,11.01
2023-05-24T06:56:49.713Z,11.01
2023-05-24T06:57:49.748Z,11.02
2023-05-24T06:58:49.601Z,11.01
2023-05-24T06:59:49.580Z,11.02
2023-05-24T07:00:49.599Z,11.09
2023-05-24T07:01:49.746Z,11.03
2023-05-24T07:02:49.587Z,11.10
2023-05-24T07:03:49.658Z,11.16
2023-05-24T07:04:49.710Z,11.19
2023-05-24T07:05:49.586Z,11.27
2023-05-24T07:06:49.525Z,11.34
2023-05-24T07:07:49.497Z,11.38
2023-05-24T07:08:49.497Z,11.38
2023-05-24T07:09:49.487Z,11.38
2023-05-24T07:10:49.468Z,11.39
2023-05-24T07:11:49.537Z,11.44
2023-05-24T07:12:49.453Z,11.50
2023-05-24T07:13:49.448Z,11.49
2023-05-24T07:14:49.454Z,11.49
2023-05-24T07:15:49.458Z,11.50
2023-05-24T07:16:49.456Z,11.50
2023-05-24T07:17:49.465Z,11.52
2023-05-24T07:18:49.420Z,11.36
2023-05-24T07:19:49.499Z,11.31
2023-05-24T07:20:49.460Z,11.36
2023-05-24T07:21:49.360Z,11.31
2023-05-24T07:22:49.324Z,11.27
2023-05-24T07:23:49.359Z,11.16
2023-05-24T07:24:49.323Z,11.16
2023-05-24T07:25:49.292Z,11.24
2023-05-24T07:26:49.298Z,11.19
2023-05-24T07:27:49.292Z,11.31
2023-05-24T07:28:49.280Z,11.39
2023-05-24T07:29:49.253Z,11.46
2023-05-24T07:30:49.419Z,11.46
2023-05-24T07:31:49.304Z,11.50
2023-05-24T07:32:49.270Z,11.50
2023-05-24T07:33:49.230Z,11.70
2023-05-24T07:34:49.200Z,11.71
2023-05-24T07:35:49.191Z,11.72
2023-05-24T07:36:49.174Z,11.78
2023-05-24T07:37:49.168Z,11.74
2023-05-24T07:38:49.180Z,11.77
2023-05-24T07:39:49.136Z,11.78
2023-05-24T07:40:49.167Z,11.80
2023-05-24T07:41:49.127Z,11.77
2023-05-24T07:42:49.113Z,11.78
2023-05-24T07:43:49.101Z,11.85
2023-05-24T07:44:49.097Z,11.93
2023-05-24T07:45:49.108Z,11.93
2023-05-24T07:46:49.143Z,11.83
2023-05-24T07:47:49.089Z,11.78
2023-05-24T07:48:49.076Z,11.80
2023-05-24T07:49:49.051Z,11.78
2023-05-24T07:50:49.038Z,11.78
2023-05-24T07:51:49.930Z,11.83
2023-05-24T07:52:49.008Z,11.90
2023-05-24T07:53:48.989Z,11.90
2023-05-24T07:54:48.985Z,11.94
2023-05-24T07:55:48.973Z,11.89
2023-05-24T07:56:48.952Z,11.94
2023-05-24T07:57:48.961Z,11.94
2023-05-24T07:58:48.943Z,11.87
2023-05-24T07:59:48.981Z,11.93
2023-05-24T08:00:48.927Z,11.94
2023-05-24T08:01:48.900Z,12.01
2023-05-24T08:02:49.011Z,12.12
2023-05-24T08:03:49.135Z,12.16
2023-05-24T08:04:48.908Z,12.19
2023-05-24T08:05:48.870Z,12.19
2023-05-24T08:06:48.900Z,12.15
2023-05-24T08:07:48.842Z,12.15
2023-05-24T08:08:48.817Z,12.11
2023-05-24T08:09:48.813Z,12.12
2023-05-24T08:10:48.828Z,12.19
2023-05-24T08:11:48.778Z,12.21
2023-05-24T08:12:48.783Z,12.24
2023-05-24T08:13:48.762Z,12.16
2023-05-24T08:14:48.778Z,12.26
2023-05-24T08:15:48.736Z,12.26
2023-05-24T08:16:48.825Z,12.30
2023-05-24T08:17:48.898Z,12.42
2023-05-24T08:18:48.721Z,12.46
2023-05-24T08:19:48.803Z,12.48
2023-05-24T08:20:48.784Z,12.45
2023-05-24T08:21:48.695Z,12.49
2023-05-24T08:22:48.747Z,12.48
2023-05-24T08:23:48.704Z,12.41
2023-05-24T08:24:48.679Z,12.34
2023-05-24T08:25:48.658Z,12.34
2023-05-24T08:26:48.651Z,12.34
2023-05-24T08:27:48.682Z,12.29
2023-05-24T08:28:48.634Z,12.24
2023-05-24T08:29:48.594Z,12.29
2023-05-24T08:30:48.593Z,12.29
2023-05-24T08:31:48.663Z,12.31
2023-05-24T08:32:48.660Z,12.30
2023-05-24T08:33:48.555Z,12.39
2023-05-24T08:34:48.534Z,12.45
2023-05-24T08:35:48.537Z,12.51
2023-05-24T08:36:48.539Z,12.52
2023-05-24T08:37:48.504Z,12.60
2023-05-24T08:38:48.530Z,12.63
2023-05-24T08:39:49.230Z,12.54
2023-05-24T08:40:48.468Z,12.49
2023-05-24T08:42:00.982Z,12.49
2023-05-24T08:42:48.461Z,12.57
2023-05-24T08:43:48.429Z,12.46
2023-05-24T08:44:48.578Z,12.45
2023-05-24T08:45:48.451Z,12.39
2023-05-24T08:46:48.499Z,12.45
2023-05-24T08:47:48.574Z,12.44
2023-05-24T08:48:48.445Z,12.45
2023-05-24T08:49:48.370Z,12.45
2023-05-24T08:50:48.364Z,12.46
2023-05-24T08:51:48.373Z,12.51
2023-05-24T08:52:48.354Z,12.57
2023-05-24T08:53:48.367Z,12.59
2023-05-24T08:54:48.346Z,12.64
2023-05-24T08:55:48.315Z,12.74
2023-05-24T08:56:48.303Z,12.82
2023-05-24T08:57:48.295Z,12.87
2023-05-24T08:58:48.285Z,12.79
2023-05-24T08:59:48.283Z,12.88
2023-05-24T09:00:48.274Z,12.84
2023-05-24T09:01:48.316Z,12.81
2023-05-24T09:02:48.315Z,12.81
2023-05-24T09:03:48.287Z,12.81
2023-05-24T09:04:48.266Z,12.77
2023-05-24T09:05:48.211Z,12.69
2023-05-24T09:06:48.207Z,12.56
2023-05-24T09:07:48.191Z,12.57
2023-05-24T09:08:48.174Z,12.56
2023-05-24T09:09:48.226Z,12.60
2023-05-24T09:10:54.798Z,12.71
2023-05-24T09:11:48.182Z,12.84
2023-05-24T09:12:48.126Z,12.96
2023-05-24T09:13:48.111Z,13.00
2023-05-24T09:14:48.114Z,12.97
2023-05-24T09:15:48.136Z,12.99
2023-05-24T09:16:48.136Z,13.02
2023-05-24T09:17:48.102Z,13.06
2023-05-24T09:18:48.057Z,13.03
2023-05-24T09:19:48.064Z,13.03
2023-05-24T09:20:48.320Z,13.00
2023-05-24T09:21:48.141Z,12.87
2023-05-24T09:22:48.029Z,12.74
2023-05-24T09:23:47.996Z,12.67
2023-05-24T09:24:48.046Z,12.71
2023-05-24T09:25:48.003Z,12.77
2023-05-24T09:26:48.002Z,12.93
2023-05-24T09:27:48.932Z,13.03
2023-05-24T09:28:47.963Z,13.06
2023-05-24T09:29:47.949Z,13.04
2023-05-24T09:30:47.941Z,13.09
2023-05-24T09:31:48.011Z,13.04
2023-05-24T09:32:47.960Z,13.00
2023-05-24T09:33:47.902Z,13.04
2023-05-24T09:34:47.889Z,13.11
2023-05-24T09:35:47.865Z,13.12
2023-05-24T09:36:47.932Z,13.17
2023-05-24T09:37:47.844Z,13.17
2023-05-24T09:38:47.862Z,13.20
2023-05-24T09:39:47.853Z,13.15
2023-05-24T09:40:47.833Z,13.11
2023-05-24T09:41:47.825Z,13.17
2023-05-24T09:42:47.837Z,13.14
2023-05-24T09:43:47.775Z,13.14
2023-05-24T09:44:47.785Z,13.15
2023-05-24T09:45:47.758Z,13.18
2023-05-24T09:46:48.057Z,13.20
2023-05-24T09:47:47.753Z,13.25
2023-05-24T09:48:47.737Z,13.33
2023-05-24T09:49:49.314Z,13.36
2023-05-24T09:50:47.767Z,13.36
2023-05-24T09:51:47.866Z,13.20
2023-05-24T09:52:47.709Z,13.17
2023-05-24T09:53:47.698Z,13.17
2023-05-24T09:54:47.669Z,13.04
2023-05-24T09:55:47.645Z,13.00
2023-05-24T09:56:47.648Z,12.96
2023-05-24T09:57:47.646Z,12.92
2023-05-24T09:58:47.637Z,12.89
2023-05-24T09:59:47.614Z,12.92
2023-05-24T10:00:48.041Z,12.84
2023-05-24T10:01:47.718Z,12.77
2023-05-24T10:02:53.475Z,12.69
2023-05-24T10:03:47.665Z,12.78
2023-05-24T10:04:47.726Z,12.74
2023-05-24T10:05:47.556Z,12.81
2023-05-24T10:06:47.548Z,12.93
2023-05-24T10:07:47.552Z,12.88
2023-05-24T10:08:47.509Z,12.95
2023-05-24T10:09:47.567Z,12.97
2023-05-24T10:10:47.502Z,12.96
2023-05-24T10:11:47.470Z,12.97
2023-05-24T10:12:47.480Z,13.02
2023-05-24T10:13:47.463Z,13.06
